createdAt,value
2018-11-05T00:00:42.627Z,25.53
2018-11-05T00:03:11.110Z,24.10
2018-11-05T00:05:39.617Z,24.47
2018-11-05T00:08:08.158Z,26.20
2018-11-05T00:10:36.716Z,25.37
2018-11-05T00:13:05.858Z,29.43
2018-11-05T00:15:34.387Z,23.97
2018-11-05T00:18:02.923Z,23.73
2018-11-05T00:20:31.603Z,20.60
2018-11-05T00:23:00.112Z,25.23
2018-11-05T00:25:29.227Z,23.33
2018-11-05T00:27:57.774Z,27.03
2018-11-05T00:30:26.590Z,24.10
2018-11-05T00:32:55.110Z,27.73
2018-11-05T00:35:23.759Z,32.43
2018-11-05T00:37:52.297Z,23.10
2018-11-05T00:40:20.799Z,24.43
2018-11-05T00:42:49.419Z,23.90
2018-11-05T00:45:17.909Z,23.80
2018-11-05T00:47:46.397Z,20.00
2018-11-05T00:50:16.962Z,21.30
2018-11-05T00:52:45.478Z,21.30
2018-11-05T00:55:14.433Z,25.77
2018-11-05T00:57:42.939Z,27.03
2018-11-05T01:00:14.475Z,25.70
2018-11-05T01:02:43.265Z,28.93
2018-11-05T01:05:13.565Z,48.37
2018-11-05T01:07:42.886Z,31.27
2018-11-05T01:10:13.422Z,37.07
2018-11-05T01:12:42.007Z,43.47
2018-11-05T01:15:12.731Z,30.37
2018-11-05T01:17:41.234Z,31.40
2018-11-05T01:20:11.143Z,24.60
2018-11-05T01:22:39.874Z,27.80
2018-11-05T01:25:08.410Z,26.90
2018-11-05T01:27:37.001Z,24.23
2018-11-05T01:30:07.942Z,22.50
2018-11-05T01:32:36.491Z,65.33
2018-11-05T01:35:06.010Z,49.27
2018-11-05T01:37:34.544Z,41.43
2018-11-05T01:40:03.110Z,31.60
2018-11-05T01:42:31.608Z,32.67
2018-11-05T01:45:00.120Z,28.53
2018-11-05T01:47:28.609Z,35.33
2018-11-05T01:49:57.118Z,28.23
2018-11-05T01:52:26.383Z,30.03
2018-11-05T01:54:54.879Z,31.13
2018-11-05T01:57:23.580Z,31.27
2018-11-05T01:59:52.107Z,27.60
2018-11-05T02:02:21.444Z,26.30
2018-11-05T02:04:49.955Z,21.80
2018-11-05T02:07:18.472Z,20.30
2018-11-05T02:09:46.994Z,24.83
2018-11-05T02:12:16.350Z,23.23
2018-11-05T02:14:44.875Z,24.63
2018-11-05T02:17:13.514Z,83.93
2018-11-05T02:19:42.791Z,45.67
2018-11-05T02:22:11.908Z,48.13
2018-11-05T02:24:40.394Z,39.93
2018-11-05T02:27:09.469Z,51.73
2018-11-05T02:29:37.930Z,48.00
2018-11-05T02:32:06.425Z,40.60
2018-11-05T02:34:34.946Z,35.43
2018-11-05T02:37:03.615Z,38.47
2018-11-05T02:39:32.214Z,30.37
2018-11-05T02:42:00.698Z,27.30
2018-11-05T02:44:29.369Z,25.83
2018-11-05T02:46:57.887Z,21.50
2018-11-05T02:49:26.415Z,26.83
2018-11-05T02:51:54.955Z,20.87
2018-11-05T02:54:23.921Z,22.13
2018-11-05T02:56:52.459Z,25.93
2018-11-05T02:59:20.971Z,24.47
2018-11-05T03:01:50.361Z,24.77
2018-11-05T03:04:18.851Z,23.63
2018-11-05T03:06:47.358Z,21.40
2018-11-05T03:09:15.855Z,21.63
2018-11-05T03:11:44.372Z,17.67
2018-11-05T03:14:12.881Z,23.77
2018-11-05T03:16:41.386Z,21.57
2018-11-05T03:19:10.599Z,23.97
2018-11-05T03:21:39.383Z,28.33
2018-11-05T03:24:08.459Z,28.63
2018-11-05T03:26:36.967Z,29.10
2018-11-05T03:29:05.831Z,23.90
2018-11-05T03:31:34.771Z,31.57
2018-11-05T03:34:04.042Z,24.13
2018-11-05T03:36:32.555Z,22.80
2018-11-05T03:39:02.335Z,26.40
2018-11-05T03:41:30.860Z,24.97
2018-11-05T03:44:02.803Z,22.77
2018-11-05T03:46:31.331Z,28.00
2018-11-05T03:49:00.564Z,22.60
2018-11-05T03:51:29.089Z,19.70
2018-11-05T03:53:58.010Z,23.60
2018-11-05T03:56:27.157Z,21.37
2018-11-05T03:58:55.679Z,19.20
2018-11-05T04:01:24.226Z,23.00
2018-11-05T04:03:52.800Z,26.23
2018-11-05T04:06:21.302Z,26.33
2018-11-05T04:08:49.827Z,27.53
2018-11-05T04:11:18.785Z,24.80
2018-11-05T04:13:47.270Z,20.43
2018-11-05T04:16:15.747Z,23.30
2018-11-05T04:18:44.266Z,22.93
2018-11-05T04:21:13.127Z,24.13
2018-11-05T04:23:41.622Z,22.40
2018-11-05T04:26:10.094Z,17.97
2018-11-05T04:28:38.595Z,21.47
2018-11-05T04:31:07.155Z,25.27
2018-11-05T04:33:35.641Z,22.27
2018-11-05T04:36:04.331Z,21.40
2018-11-05T04:38:32.831Z,19.30
2018-11-05T04:41:01.342Z,21.43
2018-11-05T04:43:29.887Z,20.20
2018-11-05T04:45:58.387Z,21.37
2018-11-05T04:48:27.281Z,19.23
2018-11-05T04:50:55.772Z,25.70
2018-11-05T04:53:24.266Z,22.93
2018-11-05T04:55:52.780Z,30.67
2018-11-05T04:58:21.318Z,23.00
2018-11-05T05:00:49.837Z,23.57
2018-11-05T05:03:18.459Z,30.10
2018-11-05T05:05:46.984Z,19.40
2018-11-05T05:08:15.485Z,26.67
2018-11-05T05:10:44.034Z,21.13
2018-11-05T05:13:12.513Z,20.23
2018-11-05T05:15:41.034Z,25.03
2018-11-05T05:21:02.774Z,21.30
2018-11-05T05:23:31.282Z,24.83
2018-11-05T05:26:00.023Z,24.37
2018-11-05T05:28:28.521Z,23.17
2018-11-05T05:30:57.014Z,24.27
2018-11-05T05:33:25.524Z,23.40
2018-11-05T05:35:54.018Z,27.00
2018-11-05T05:38:23.395Z,25.43
2018-11-05T05:40:51.940Z,23.40
2018-11-05T05:43:20.815Z,44.87
2018-11-05T05:45:49.338Z,23.30
2018-11-05T05:48:17.822Z,30.50
2018-11-05T05:50:46.354Z,21.03
2018-11-05T05:53:14.895Z,23.40
2018-11-05T05:55:43.492Z,27.80
2018-11-05T05:58:11.990Z,26.90
2018-11-05T06:00:40.553Z,29.97
2018-11-05T06:03:09.068Z,29.07
2018-11-05T06:05:37.581Z,25.80
2018-11-05T06:08:06.692Z,21.10
2018-11-05T06:10:35.181Z,27.77
2018-11-05T06:13:03.773Z,21.73
2018-11-05T06:15:32.299Z,25.53
2018-11-05T06:18:00.858Z,22.63
2018-11-05T06:20:29.913Z,26.27
2018-11-05T06:22:58.431Z,26.87
2018-11-05T06:25:27.058Z,26.60
2018-11-05T06:27:55.515Z,23.27
2018-11-05T06:30:24.115Z,27.93
2018-11-05T06:32:52.783Z,23.90
2018-11-05T06:35:21.988Z,22.50
2018-11-05T06:37:50.480Z,32.03
2018-11-05T06:40:20.250Z,21.57
2018-11-05T06:42:49.125Z,20.60
2018-11-05T06:45:19.858Z,25.97
2018-11-05T06:47:48.651Z,21.60
2018-11-05T06:50:19.479Z,27.53
2018-11-05T06:52:48.092Z,25.43
2018-11-05T06:55:17.006Z,24.30
2018-11-05T06:57:45.745Z,21.97
2018-11-05T07:00:19.310Z,36.90
2018-11-05T07:02:47.837Z,37.40
2018-11-05T07:05:17.098Z,25.47
2018-11-05T07:07:45.590Z,22.00
2018-11-05T07:10:15.168Z,26.30
2018-11-05T07:12:44.189Z,21.33
2018-11-05T07:15:16.089Z,22.47
2018-11-05T07:17:45.570Z,24.77
2018-11-05T07:20:15.566Z,21.03
2018-11-05T07:22:44.866Z,23.47
2018-11-05T07:25:14.277Z,23.47
2018-11-05T07:27:43.123Z,25.40
2018-11-05T07:30:16.387Z,26.23
2018-11-05T07:32:45.282Z,27.03
2018-11-05T07:35:14.867Z,28.70
2018-11-05T07:37:44.063Z,21.30
2018-11-05T07:40:14.230Z,22.03
2018-11-05T07:42:43.027Z,24.63
2018-11-05T07:45:14.263Z,25.70
2018-11-05T07:47:43.735Z,28.00
2018-11-05T07:50:13.616Z,31.07
2018-11-05T07:52:42.091Z,29.87
2018-11-05T07:55:12.778Z,27.30
2018-11-05T07:57:42.490Z,29.83
2018-11-05T08:03:04.009Z,28.30
2018-11-05T08:05:32.478Z,26.90
2018-11-05T08:08:01.001Z,33.57
2018-11-05T08:10:29.508Z,27.33
2018-11-05T08:12:58.107Z,32.60
2018-11-05T08:15:26.815Z,26.23
2018-11-05T08:17:55.573Z,34.27
2018-11-05T08:20:24.169Z,31.57
2018-11-05T08:22:52.668Z,33.40
2018-11-05T08:25:21.181Z,31.10
2018-11-05T08:27:49.950Z,26.50
2018-11-05T08:30:20.779Z,29.07
2018-11-05T08:32:49.308Z,29.33
2018-11-05T08:35:17.858Z,35.73
2018-11-05T08:37:47.265Z,23.60
2018-11-05T08:40:19.024Z,25.50
2018-11-05T08:42:48.467Z,26.67
2018-11-05T08:45:18.268Z,29.23
2018-11-05T08:47:47.149Z,26.23
2018-11-05T08:50:16.985Z,23.57
2018-11-05T08:52:45.447Z,24.07
2018-11-05T08:55:15.965Z,26.00
2018-11-05T08:57:44.720Z,21.00
2018-11-05T09:00:22.375Z,25.60
2018-11-05T09:02:51.246Z,20.00
2018-11-05T09:05:19.927Z,22.47
2018-11-05T09:07:49.159Z,19.97
2018-11-05T09:10:17.892Z,20.70
2018-11-05T09:12:46.275Z,21.73
2018-11-05T09:15:20.065Z,19.03
2018-11-05T09:17:48.945Z,19.07
2018-11-05T09:20:18.329Z,21.30
2018-11-05T09:22:47.756Z,19.23
2018-11-05T09:25:16.837Z,18.67
2018-11-05T09:27:45.356Z,17.67
2018-11-05T09:30:16.996Z,18.03
2018-11-05T09:32:46.511Z,24.03
2018-11-05T09:35:15.163Z,19.37
2018-11-05T09:37:43.703Z,22.03
2018-11-05T09:40:16.701Z,17.90
2018-11-05T09:42:45.923Z,19.03
2018-11-05T09:45:16.971Z,19.30
2018-11-05T09:47:46.437Z,16.67
2018-11-05T09:50:15.350Z,16.77
2018-11-05T09:52:44.239Z,20.87
2018-11-05T09:55:13.560Z,19.50
2018-11-05T09:57:42.402Z,21.80
2018-11-05T10:00:14.635Z,18.63
2018-11-05T10:02:48.337Z,16.00
2018-11-05T10:05:17.344Z,17.63
2018-11-05T10:07:46.087Z,17.03
2018-11-05T10:10:15.454Z,18.93
2018-11-05T10:12:44.195Z,22.07
2018-11-05T10:15:13.730Z,22.77
2018-11-05T10:17:42.394Z,20.10
2018-11-05T10:20:16.238Z,24.60
2018-11-05T10:22:45.624Z,34.30
2018-11-05T10:25:14.766Z,27.87
2018-11-05T10:27:43.161Z,26.00
2018-11-05T10:30:15.926Z,35.90
2018-11-05T10:32:45.198Z,27.17
2018-11-05T10:35:14.448Z,23.43
2018-11-05T10:37:42.996Z,20.93
2018-11-05T10:40:14.562Z,20.80
2018-11-05T10:42:43.954Z,24.97
2018-11-05T10:45:13.744Z,24.47
2018-11-05T10:47:42.344Z,26.87
2018-11-05T10:50:12.315Z,29.57
2018-11-05T10:52:40.814Z,25.80
2018-11-05T10:55:09.376Z,29.57
2018-11-05T10:57:38.094Z,27.00
2018-11-05T11:00:14.960Z,25.60
2018-11-05T11:02:46.466Z,24.50
2018-11-05T11:05:14.992Z,29.57
2018-11-05T11:07:43.525Z,25.00
2018-11-05T11:10:12.036Z,32.03
2018-11-05T11:12:40.822Z,27.03
2018-11-05T11:15:09.505Z,26.37
2018-11-05T11:17:38.536Z,26.57
2018-11-05T11:20:08.623Z,25.70
2018-11-05T11:22:37.600Z,24.37
2018-11-05T11:25:07.194Z,25.90
2018-11-05T11:27:36.661Z,31.10
2018-11-05T11:30:05.927Z,27.83
2018-11-05T11:32:34.892Z,27.03
2018-11-05T11:35:04.004Z,30.53
2018-11-05T11:37:32.939Z,36.83
2018-11-05T11:40:01.892Z,33.53
2018-11-05T11:42:30.816Z,31.40
2018-11-05T11:45:00.211Z,29.60
2018-11-05T11:47:29.130Z,29.87
2018-11-05T11:49:57.951Z,33.77
2018-11-05T11:52:26.863Z,32.20
2018-11-05T11:54:55.764Z,29.30
2018-11-05T11:57:24.714Z,33.57
2018-11-05T11:59:53.751Z,31.43
2018-11-05T12:02:22.722Z,34.17
2018-11-05T12:04:51.842Z,30.30
2018-11-05T12:07:20.675Z,33.40
2018-11-05T12:09:49.660Z,33.10
2018-11-05T12:12:18.599Z,35.93
2018-11-05T12:14:47.700Z,31.03
2018-11-05T12:17:16.427Z,37.60
2018-11-05T12:19:45.259Z,35.43
2018-11-05T12:22:14.154Z,31.33
2018-11-05T12:24:42.984Z,29.43
2018-11-05T12:27:11.870Z,32.17
2018-11-05T12:29:40.864Z,35.70
2018-11-05T12:32:09.755Z,29.67
2018-11-05T12:34:38.691Z,29.57
2018-11-05T12:37:07.777Z,32.90
2018-11-05T12:39:36.615Z,32.77
2018-11-05T12:42:05.868Z,28.33
2018-11-05T12:44:34.942Z,29.47
2018-11-05T12:47:04.222Z,28.60
2018-11-05T12:49:33.043Z,34.37
2018-11-05T12:52:01.934Z,30.27
2018-11-05T12:54:30.862Z,33.03
2018-11-05T12:56:59.646Z,31.03
2018-11-05T12:59:28.439Z,34.90
2018-11-05T13:01:58.163Z,30.17
2018-11-05T13:04:27.071Z,31.73
2018-11-05T13:06:55.978Z,31.10
2018-11-05T13:09:24.494Z,33.57
2018-11-05T13:11:53.022Z,30.50
2018-11-05T13:14:21.876Z,27.83
2018-11-05T13:16:50.469Z,31.57
2018-11-05T13:19:18.987Z,32.10
2018-11-05T13:21:47.963Z,35.83
2018-11-05T13:24:16.632Z,35.67
2018-11-05T13:26:45.052Z,34.57
2018-11-05T13:29:13.636Z,38.00
2018-11-05T13:31:42.176Z,43.53
2018-11-05T13:34:10.675Z,39.30
2018-11-05T13:36:39.304Z,31.87
2018-11-05T13:39:09.341Z,40.83
2018-11-05T13:41:37.903Z,37.30
2018-11-05T13:44:06.455Z,31.40
2018-11-05T13:46:35.476Z,33.00
2018-11-05T13:51:56.300Z,42.57
2018-11-05T13:54:25.209Z,31.80
2018-11-05T13:56:53.761Z,31.53
2018-11-05T13:59:22.266Z,31.83
2018-11-05T14:01:51.219Z,33.27
2018-11-05T14:04:19.735Z,34.33
2018-11-05T14:06:48.263Z,47.83
2018-11-05T14:09:16.806Z,34.63
2018-11-05T14:11:45.543Z,32.03
2018-11-05T14:14:14.067Z,34.93
2018-11-05T14:16:42.559Z,35.00
2018-11-05T14:19:11.055Z,30.57
2018-11-05T14:21:39.574Z,31.10
2018-11-05T14:24:08.064Z,33.20
2018-11-05T14:26:36.725Z,32.10
2018-11-05T14:29:05.731Z,30.80
2018-11-05T14:31:33.873Z,32.63
2018-11-05T14:34:04.502Z,32.13
2018-11-05T14:36:33.066Z,35.17
2018-11-05T14:39:02.800Z,36.27
2018-11-05T14:41:31.302Z,33.47
2018-11-05T14:44:00.165Z,37.20
2018-11-05T14:46:28.686Z,45.27
2018-11-05T14:48:57.199Z,39.60
2018-11-05T14:51:25.914Z,63.10
2018-11-05T14:53:54.415Z,46.00
2018-11-05T14:56:22.943Z,57.20
2018-11-05T14:58:51.459Z,33.50
2018-11-05T15:01:19.954Z,44.73
2018-11-05T15:03:49.265Z,44.77
2018-11-05T15:06:17.782Z,36.80
2018-11-05T15:08:46.287Z,39.23
2018-11-05T15:11:14.908Z,38.17
2018-11-05T15:13:43.528Z,45.13
2018-11-05T15:16:12.023Z,42.13
2018-11-05T15:18:40.634Z,39.10
2018-11-05T15:21:09.172Z,39.60
2018-11-05T15:23:37.578Z,41.47
2018-11-05T15:26:06.129Z,37.77
2018-11-05T15:28:34.610Z,37.83
2018-11-05T15:31:03.165Z,44.20
2018-11-05T15:33:43.851Z,41.87
2018-11-05T15:36:12.316Z,51.83
2018-11-05T15:38:40.834Z,57.13
2018-11-05T15:41:09.365Z,48.43
2018-11-05T15:43:48.008Z,49.20
2018-11-05T15:46:16.669Z,39.53
2018-11-05T15:48:45.175Z,31.97
2018-11-05T15:51:13.792Z,39.73
2018-11-05T15:53:42.472Z,44.83
2018-11-05T15:56:10.783Z,41.50
2018-11-05T15:58:39.314Z,38.13
2018-11-05T16:01:07.813Z,51.47
2018-11-05T16:03:36.683Z,43.73
2018-11-05T16:06:05.179Z,42.87
2018-11-05T16:08:33.790Z,38.80
2018-11-05T16:11:02.544Z,43.50
2018-11-05T16:13:31.054Z,38.17
2018-11-05T16:15:59.571Z,39.00
2018-11-05T16:18:28.055Z,43.07
2018-11-05T16:20:56.612Z,43.03
2018-11-05T16:23:25.123Z,39.47
2018-11-05T16:25:53.704Z,44.70
2018-11-05T16:28:22.158Z,38.33
2018-11-05T16:30:50.670Z,40.10
2018-11-05T16:33:19.184Z,36.37
2018-11-05T16:35:47.730Z,32.70
2018-11-05T16:38:16.311Z,33.13
2018-11-05T16:40:44.770Z,34.83
2018-11-05T16:43:13.266Z,33.47
2018-11-05T16:45:41.829Z,32.23
2018-11-05T16:48:10.401Z,38.60
2018-11-05T16:50:39.008Z,38.97
2018-11-05T16:53:07.558Z,30.63
2018-11-05T16:55:36.095Z,35.00
2018-11-05T16:58:04.714Z,36.60
2018-11-05T17:00:33.212Z,31.13
2018-11-05T17:03:01.798Z,39.10
2018-11-05T17:05:31.102Z,46.50
2018-11-05T17:07:59.615Z,32.60
2018-11-05T17:10:28.244Z,43.17
2018-11-05T17:12:57.626Z,34.33
2018-11-05T17:15:26.174Z,34.50
2018-11-05T17:17:54.787Z,33.70
2018-11-05T17:20:23.390Z,38.30
2018-11-05T17:22:51.932Z,42.20
2018-11-05T17:25:20.442Z,40.53
2018-11-05T17:27:49.076Z,39.40
2018-11-05T17:30:20.277Z,32.30
2018-11-05T17:32:48.891Z,33.33
2018-11-05T17:35:17.712Z,30.67
2018-11-05T17:37:46.931Z,35.70
2018-11-05T17:40:16.957Z,27.87
2018-11-05T17:42:45.418Z,28.20
2018-11-05T17:45:15.411Z,46.13
2018-11-05T17:47:44.086Z,49.63
2018-11-05T17:50:14.771Z,42.13
2018-11-05T17:52:43.679Z,37.00
2018-11-05T17:55:13.006Z,39.03
2018-11-05T17:57:42.699Z,35.17
2018-11-05T18:00:13.962Z,33.60
2018-11-05T18:02:42.494Z,34.57
2018-11-05T18:05:11.102Z,34.60
2018-11-05T18:07:39.605Z,29.73
2018-11-05T18:10:08.518Z,29.40
2018-11-05T18:12:37.115Z,35.73
2018-11-05T18:15:07.775Z,33.47
2018-11-05T18:17:36.366Z,31.87
2018-11-05T18:20:05.330Z,25.90
2018-11-05T18:22:34.011Z,28.67
2018-11-05T18:25:02.542Z,38.07
2018-11-05T18:27:31.081Z,31.47
2018-11-05T18:29:59.857Z,32.63
2018-11-05T18:32:28.392Z,40.07
2018-11-05T18:34:56.912Z,40.67
2018-11-05T18:37:25.510Z,38.30
2018-11-05T18:39:54.014Z,39.47
2018-11-05T18:42:22.524Z,38.30
2018-11-05T18:44:51.038Z,37.23
2018-11-05T18:47:19.631Z,35.77
2018-11-05T18:49:48.112Z,29.53
2018-11-05T18:52:16.611Z,28.83
2018-11-05T18:54:45.119Z,33.13
2018-11-05T18:57:13.790Z,38.67
2018-11-05T18:59:42.215Z,43.23
2018-11-05T19:02:15.683Z,41.67
2018-11-05T19:04:44.186Z,37.90
2018-11-05T19:07:12.724Z,34.97
2018-11-05T19:09:41.286Z,31.80
2018-11-05T19:12:09.804Z,43.77
2018-11-05T19:14:38.502Z,36.40
2018-11-05T19:17:07.026Z,37.00
2018-11-05T19:19:35.534Z,30.80
2018-11-05T19:22:04.133Z,31.90
2018-11-05T19:24:32.765Z,32.73
2018-11-05T19:27:01.195Z,29.93
2018-11-05T19:29:29.714Z,35.67
2018-11-05T19:31:58.251Z,38.73
2018-11-05T19:34:26.798Z,39.50
2018-11-05T19:36:55.311Z,51.30
2018-11-05T19:39:23.847Z,34.60
2018-11-05T19:41:52.436Z,36.23
2018-11-05T19:44:20.994Z,33.97
2018-11-05T19:46:49.533Z,33.20
2018-11-05T19:49:18.109Z,32.60
2018-11-05T19:51:46.623Z,29.87
2018-11-05T19:54:15.135Z,36.23
2018-11-05T19:56:43.661Z,27.23
2018-11-05T19:59:12.187Z,27.60
2018-11-05T20:01:40.703Z,29.10
2018-11-05T20:04:09.522Z,25.83
2018-11-05T20:06:38.025Z,32.37
2018-11-05T20:09:07.963Z,34.60
2018-11-05T20:11:36.554Z,26.47
2018-11-05T20:14:05.726Z,29.40
2018-11-05T20:16:35.043Z,27.40
2018-11-05T20:19:04.976Z,30.20
2018-11-05T20:21:33.464Z,31.53
2018-11-05T20:24:03.894Z,28.87
2018-11-05T20:26:32.406Z,27.90
2018-11-05T20:29:02.019Z,30.03
2018-11-05T20:31:30.816Z,31.57
2018-11-05T20:33:59.525Z,33.90
2018-11-05T20:36:27.952Z,26.50
2018-11-05T20:38:56.458Z,29.80
2018-11-05T20:41:24.954Z,27.07
2018-11-05T20:43:53.463Z,30.20
2018-11-05T20:46:22.008Z,29.20
2018-11-05T20:48:50.490Z,30.60
2018-11-05T20:51:19.001Z,27.10
2018-11-05T20:53:47.512Z,25.30
2018-11-05T20:56:16.042Z,25.40
2018-11-05T20:58:44.566Z,22.93
2018-11-05T21:01:13.067Z,25.47
2018-11-05T21:03:41.790Z,25.23
2018-11-05T21:06:10.303Z,30.10
2018-11-05T21:08:38.850Z,22.87
2018-11-05T21:11:07.378Z,25.53
2018-11-05T21:13:35.875Z,29.53
2018-11-05T21:16:04.550Z,26.87
2018-11-05T21:18:33.503Z,24.60
2018-11-05T21:21:02.221Z,25.00
2018-11-05T21:23:30.690Z,33.17
2018-11-05T21:25:59.202Z,26.33
2018-11-05T21:28:27.691Z,26.47
2018-11-05T21:30:56.195Z,28.47
2018-11-05T21:33:24.719Z,24.60
2018-11-05T21:35:53.211Z,26.57
2018-11-05T21:38:21.719Z,29.60
2018-11-05T21:40:52.482Z,27.93
2018-11-05T21:43:20.976Z,32.53
2018-11-05T21:45:49.919Z,30.70
2018-11-05T21:48:18.431Z,28.17
2018-11-05T21:50:46.930Z,23.63
2018-11-05T21:53:15.559Z,25.57
2018-11-05T21:55:44.147Z,27.73
2018-11-05T21:58:12.694Z,24.83
2018-11-05T22:00:41.212Z,29.33
2018-11-05T22:03:17.903Z,33.03
2018-11-05T22:05:46.424Z,30.50
2018-11-05T22:08:14.917Z,30.93
2018-11-05T22:10:43.420Z,35.83
2018-11-05T22:13:11.919Z,25.70
2018-11-05T22:15:43.339Z,26.17
2018-11-05T22:18:11.862Z,30.10
2018-11-05T22:20:40.726Z,22.43
2018-11-05T22:23:09.263Z,23.10
2018-11-05T22:25:37.837Z,26.53
2018-11-05T22:28:06.638Z,26.70
2018-11-05T22:30:35.402Z,23.67
2018-11-05T22:33:04.060Z,28.70
2018-11-05T22:35:32.579Z,26.17
2018-11-05T22:38:01.182Z,21.40
2018-11-05T22:40:29.656Z,23.90
2018-11-05T22:42:58.170Z,20.90
2018-11-05T22:45:27.070Z,22.80
2018-11-05T22:47:55.571Z,22.97
2018-11-05T22:50:24.096Z,23.20
2018-11-05T22:52:52.614Z,22.47
2018-11-05T22:55:21.118Z,25.97
2018-11-05T22:57:49.638Z,28.20
2018-11-05T23:00:23.743Z,20.50
2018-11-05T23:02:57.450Z,18.47
2018-11-05T23:05:26.143Z,22.27
2018-11-05T23:07:55.664Z,29.27
2018-11-05T23:10:24.239Z,25.17
2018-11-05T23:12:52.740Z,24.17
2018-11-05T23:15:21.492Z,23.23
2018-11-05T23:17:50.553Z,23.70
2018-11-05T23:20:19.088Z,22.00
2018-11-05T23:22:47.618Z,23.93
2018-11-05T23:25:16.153Z,26.40
2018-11-05T23:27:44.654Z,25.77
2018-11-05T23:30:13.855Z,22.50
2018-11-05T23:32:42.415Z,29.40
2018-11-05T23:35:11.522Z,24.17
2018-11-05T23:37:41.073Z,23.27
2018-11-05T23:40:09.941Z,26.67
2018-11-05T23:42:39.354Z,23.70
2018-11-05T23:45:10.388Z,20.83
2018-11-05T23:47:38.905Z,22.50
2018-11-05T23:50:07.986Z,23.87
2018-11-05T23:52:36.487Z,23.30
2018-11-05T23:55:05.506Z,20.40
2018-11-05T23:57:34.044Z,21.90
